Time;durP1;ratioP1;P1;durP2;ratioP2;P2;SDS_P1;SDS_P2;PMS_P1;PMS_P2;Temp;Humidity;BMP_temperature;BMP_pressure;BME280_temperature;BME280_humidity;BME280_pressure;Samples;Min_cycle;Max_cycle;Signal;HPM_P1;HPM_P2
2021/01/26 00:02:20;;;;;;;15.40;8.60;;;;;;;4.23;100.00;95219.53;4964597;29;20228;-96
2021/01/26 00:04:47;;;;;;;14.50;9.77;;;;;;;3.91;100.00;95217.34;4964819;28;20205;-96
2021/01/26 00:07:14;;;;;;;13.90;8.90;;;;;;;3.80;100.00;95226.97;4964266;29;20257;-95
2021/01/26 00:09:41;;;;;;;10.60;6.23;;;;;;;3.64;100.00;95228.53;4964716;29;20671;-96
2021/01/26 00:12:11;;;;;;;6.57;5.47;;;;;;;3.68;100.00;95222.91;4965253;29;20325;-96
2021/01/26 00:14:38;;;;;;;9.77;6.70;;;;;;;3.45;100.00;95219.81;4965209;29;20213;-94
2021/01/26 00:17:05;;;;;;;4.87;4.27;;;;;;;3.42;100.00;95206.31;4965672;28;20761;-96
2021/01/26 00:19:33;;;;;;;5.80;4.30;;;;;;;3.78;100.00;95209.91;4963964;28;20582;-95
2021/01/26 00:22:00;;;;;;;3.77;3.20;;;;;;;3.71;100.00;95195.84;4960918;29;20206;-94
2021/01/26 00:24:27;;;;;;;6.90;4.55;;;;;;;3.55;100.00;95199.84;5172495;23;20201;-94
2021/01/26 00:26:54;;;;;;;5.90;4.47;;;;;;;3.84;100.00;95180.72;4939377;29;20230;-93
2021/01/26 00:29:21;;;;;;;5.43;3.33;;;;;;;3.58;100.00;95170.97;4940047;29;20198;-94
2021/01/26 00:31:48;;;;;;;6.23;3.63;;;;;;;3.75;100.00;95166.00;4939764;29;20205;-95
2021/01/26 00:34:14;;;;;;;4.37;3.57;;;;;;;3.94;100.00;95160.69;4940624;29;20293;-96
2021/01/26 00:36:43;;;;;;;5.63;4.47;;;;;;;3.88;100.00;95160.44;4940922;29;20199;-94
2021/01/26 00:39:09;;;;;;;3.67;3.27;;;;;;;3.78;100.00;95150.94;4940839;29;20269;-95
2021/01/26 00:41:36;;;;;;;4.30;3.13;;;;;;;3.80;100.00;95159.38;4938567;29;20195;-96
2021/01/26 00:44:03;;;;;;;3.40;3.10;;;;;;;3.97;100.00;95160.41;4937857;29;20195;-95
2021/01/26 00:46:30;;;;;;;5.07;3.30;;;;;;;3.84;100.00;95157.31;4938055;29;20218;-96
2021/01/26 00:48:57;;;;;;;4.07;3.20;;;;;;;3.92;100.00;95167.03;4937621;29;20614;-96
2021/01/26 00:51:24;;;;;;;8.20;5.23;;;;;;;3.78;100.00;95165.72;4938209;29;20250;-96
2021/01/26 00:53:52;;;;;;;12.43;8.27;;;;;;;3.64;100.00;95160.97;4937769;29;20590;-95
2021/01/26 00:56:19;;;;;;;8.90;6.63;;;;;;;3.28;100.00;95173.81;4937538;29;20202;-95
2021/01/26 00:58:46;;;;;;;13.23;8.30;;;;;;;3.34;100.00;95174.06;4937711;29;20207;-95
2021/01/26 01:01:13;;;;;;;11.13;8.50;;;;;;;3.53;100.00;95164.56;4937685;29;20205;-95
2021/01/26 01:03:40;;;;;;;9.03;6.23;;;;;;;3.45;100.00;95167.06;4937834;29;20202;-95
2021/01/26 01:06:07;;;;;;;4.97;4.47;;;;;;;3.04;100.00;95172.47;4937162;29;20226;-94
2021/01/26 01:08:34;;;;;;;9.87;6.03;;;;;;;2.97;100.00;95163.63;4937831;29;20202;-95
2021/01/26 01:11:02;;;;;;;13.80;9.53;;;;;;;3.02;100.00;95163.22;4937025;29;20698;-93
2021/01/26 01:13:29;;;;;;;9.97;5.90;;;;;;;3.21;100.00;95162.34;4937284;29;20202;-96
2021/01/26 01:15:55;;;;;;;8.87;5.87;;;;;;;3.01;100.00;95151.16;4940013;29;20202;-92
2021/01/26 01:18:22;;;;;;;6.60;5.13;;;;;;;3.21;100.00;95155.38;4937722;29;20206;-96
2021/01/26 01:20:49;;;;;;;7.03;5.83;;;;;;;3.10;100.00;95139.97;4938012;29;20285;-95
2021/01/26 01:23:16;;;;;;;6.53;4.30;;;;;;;3.16;100.00;95144.59;4941042;29;20257;-96
2021/01/26 01:25:43;;;;;;;6.87;5.77;;;;;;;3.14;100.00;95145.69;4939181;29;20234;-95
2021/01/26 01:28:11;;;;;;;12.23;7.93;;;;;;;3.14;100.00;95137.91;4938349;29;20210;-96
2021/01/26 01:30:38;;;;;;;9.07;4.50;;;;;;;3.13;100.00;95129.28;4937155;29;20226;-96
2021/01/26 01:33:06;;;;;;;7.83;4.90;;;;;;;3.09;100.00;95131.34;4937106;29;20731;-96
2021/01/26 01:35:33;;;;;;;5.00;3.20;;;;;;;3.18;100.00;95132.28;4936649;29;20260;-96
2021/01/26 01:38:00;;;;;;;3.07;2.60;;;;;;;3.16;100.00;95128.22;4938187;29;20206;-95
2021/01/26 01:40:29;;;;;;;3.57;2.63;;;;;;;3.05;100.00;95114.44;4936907;29;20234;-96
2021/01/26 01:42:56;;;;;;;2.87;2.40;;;;;;;3.20;100.00;95111.38;4937163;29;20360;-95
2021/01/26 01:45:26;;;;;;;2.97;2.67;;;;;;;3.08;100.00;95111.56;4936631;29;20222;-95
2021/01/26 01:47:59;;;;;;;3.37;3.07;;;;;;;2.95;100.00;95098.06;4936764;29;20648;-96
2021/01/26 01:50:30;;;;;;;3.50;3.20;;;;;;;2.67;100.00;95098.91;4936851;29;20246;-94
2021/01/26 01:53:02;;;;;;;2.93;2.60;;;;;;;2.63;100.00;95093.19;4936856;29;20636;-96
2021/01/26 01:55:32;;;;;;;3.40;2.63;;;;;;;2.80;100.00;95089.06;4937661;29;20289;-96
2021/01/26 01:58:04;;;;;;;3.30;2.97;;;;;;;3.19;100.00;95083.78;4940415;29;20259;-95
2021/01/26 02:00:34;;;;;;;7.07;3.30;;;;;;;3.15;100.00;95096.22;4940593;29;20191;-95
2021/01/26 02:03:09;;;;;;;5.00;3.53;;;;;;;2.78;100.00;95093.59;4939850;29;20244;-94
2021/01/26 02:05:36;;;;;;;4.27;3.57;;;;;;;2.60;100.00;95102.09;4939406;29;20210;-94
2021/01/26 02:08:10;;;;;;;6.37;4.17;;;;;;;2.75;100.00;95099.88;4940120;29;20257;-94
2021/01/26 02:10:37;;;;;;;3.77;3.40;;;;;;;2.35;100.00;95080.09;4938749;29;20252;-95
2021/01/26 02:13:04;;;;;;;3.37;3.07;;;;;;;1.95;100.00;95088.03;4955954;29;20189;-92
2021/01/26 02:15:32;;;;;;;5.17;3.60;;;;;;;2.21;100.00;95075.34;4960250;29;20195;-92
2021/01/26 02:18:20;;;;;;;5.13;3.93;;;;;;;2.40;100.00;95064.16;4959276;29;20191;-92
2021/01/26 02:21:24;;;;;;;5.23;4.40;;;;;;;2.45;100.00;95064.53;4956246;29;20226;-92
2021/01/26 02:24:19;;;;;;;4.10;3.70;;;;;;;2.30;100.00;95056.38;4958859;29;20239;-92
2021/01/26 02:27:31;;;;;;;5.87;4.20;;;;;;;2.49;100.00;95047.75;4957465;29;20241;-92
2021/01/26 02:30:38;;;;;;;3.53;2.97;;;;;;;2.29;100.00;95046.16;4936706;29;20260;-94
2021/01/26 02:33:52;;;;;;;3.07;2.80;;;;;;;2.18;100.00;95030.72;4936469;29;20293;-94
2021/01/26 02:37:04;;;;;;;4.37;2.90;;;;;;;2.38;100.00;95024.56;4936417;29;20254;-96
2021/01/26 02:39:38;;;;;;;4.80;4.07;;;;;;;2.35;100.00;95035.22;4936658;29;20632;-94
2021/01/26 02:42:46;;;;;;;5.23;4.43;;;;;;;2.31;100.00;95034.66;4936484;29;20669;-95
2021/01/26 02:45:22;;;;;;;4.40;3.37;;;;;;;2.56;100.00;95017.72;4841036;29;20229;-94
2021/01/26 02:47:58;;;;;;;4.03;3.13;;;;;;;2.38;100.00;95025.38;4928460;29;20244;-95
2021/01/26 02:50:33;;;;;;;2.73;2.53;;;;;;;2.19;100.00;95019.41;4939890;29;20665;-95
2021/01/26 02:53:09;;;;;;;4.17;3.77;;;;;;;2.23;100.00;95013.00;4940962;29;20193;-95
2021/01/26 02:55:45;;;;;;;4.10;3.80;;;;;;;2.20;100.00;95013.28;4940200;29;20183;-95
2021/01/26 02:58:18;;;;;;;4.77;4.03;;;;;;;1.85;100.00;95023.22;4939681;29;20196;-95
2021/01/26 03:00:54;;;;;;;5.17;4.67;;;;;;;1.97;100.00;95016.13;4939628;29;20203;-95
2021/01/26 03:03:26;;;;;;;12.20;7.73;;;;;;;2.25;100.00;95013.66;4940010;29;20274;-96
2021/01/26 03:05:57;;;;;;;9.90;7.00;;;;;;;2.32;100.00;95004.38;4939641;29;20215;-95
2021/01/26 03:08:30;;;;;;;8.23;5.77;;;;;;;2.50;100.00;95000.13;4939548;29;20201;-95
2021/01/26 03:11:03;;;;;;;4.80;3.90;;;;;;;2.44;100.00;95003.28;4939636;29;20235;-95
2021/01/26 03:13:33;;;;;;;3.00;2.80;;;;;;;2.32;100.00;95000.03;4940036;29;20199;-96
2021/01/26 03:16:04;;;;;;;4.30;3.90;;;;;;;2.37;100.00;95013.38;4940413;29;20199;-94
2021/01/26 03:18:40;;;;;;;3.93;3.47;;;;;;;2.12;100.00;95011.38;4939536;29;20263;-95
2021/01/26 03:21:09;;;;;;;5.23;3.70;;;;;;;2.11;100.00;95015.75;4939270;29;20302;-94
2021/01/26 03:23:41;;;;;;;4.20;3.63;;;;;;;1.89;100.00;95023.78;4939778;29;20663;-94
2021/01/26 03:26:13;;;;;;;6.87;4.20;;;;;;;1.99;100.00;95011.66;4939133;29;20234;-95
2021/01/26 03:28:42;;;;;;;5.37;4.83;;;;;;;1.70;100.00;95015.97;4939294;29;20231;-95
2021/01/26 03:31:16;;;;;;;13.23;6.63;;;;;;;1.76;100.00;95013.69;4939184;29;20195;-94
2021/01/26 03:33:48;;;;;;;23.23;12.00;;;;;;;1.63;100.00;95003.59;4939391;29;20197;-94
2021/01/26 03:36:15;;;;;;;22.30;13.10;;;;;;;1.53;100.00;95010.53;4938855;29;20233;-94
2021/01/26 03:38:46;;;;;;;15.07;10.07;;;;;;;1.38;100.00;95004.91;4938721;29;20198;-94
2021/01/26 03:41:13;;;;;;;12.33;9.23;;;;;;;1.52;100.00;95013.25;4939110;29;20616;-95
2021/01/26 03:43:40;;;;;;;11.40;8.60;;;;;;;1.37;100.00;95013.63;4938779;29;20257;-94
2021/01/26 03:46:15;;;;;;;9.43;6.80;;;;;;;1.54;100.00;95004.41;4938720;29;20316;-94
2021/01/26 03:48:59;;;;;;;8.50;6.43;;;;;;;1.81;100.00;95008.91;4938880;29;20195;-94
2021/01/26 03:51:43;;;;;;;9.90;5.80;;;;;;;1.92;100.00;95012.34;4938898;29;20324;-95
2021/01/26 03:54:29;;;;;;;6.23;4.90;;;;;;;1.60;100.00;95032.34;4938557;29;20183;-94
2021/01/26 03:57:19;;;;;;;6.57;4.50;;;;;;;1.81;100.00;95036.59;4938858;29;20253;-95
2021/01/26 03:59:58;;;;;;;5.90;4.60;;;;;;;1.75;100.00;95032.78;4937659;29;20289;-94
2021/01/26 04:02:31;;;;;;;210.70;100.93;;;;;;;1.61;100.00;95035.75;4938377;29;20282;-93
2021/01/26 04:05:06;;;;;;;29.80;19.93;;;;;;;1.84;100.00;95024.19;4938751;29;20189;-94
2021/01/26 04:07:40;;;;;;;10.00;7.53;;;;;;;1.54;100.00;95026.88;4938625;29;20233;-94
2021/01/26 04:10:22;;;;;;;7.67;6.90;;;;;;;1.67;100.00;95028.28;4938685;29;20194;-93
2021/01/26 04:12:55;;;;;;;8.43;7.63;;;;;;;1.50;100.00;95026.34;4938439;29;20214;-94
2021/01/26 04:15:27;;;;;;;9.83;7.23;;;;;;;1.50;100.00;95028.09;4938602;29;20226;-96
2021/01/26 04:17:54;;;;;;;13.67;10.80;;;;;;;1.42;100.00;95027.00;4938614;29;20195;-96
2021/01/26 04:20:24;;;;;;;22.83;15.83;;;;;;;1.18;100.00;95021.34;4938839;29;20257;-96
2021/01/26 04:22:54;;;;;;;31.73;22.90;;;;;;;1.37;100.00;95018.81;4938828;29;20199;-95
2021/01/26 04:25:31;;;;;;;14.47;12.93;;;;;;;1.16;100.00;95011.13;4937885;29;20238;-96
2021/01/26 04:28:01;;;;;;;18.83;12.93;;;;;;;1.19;100.00;95004.88;4938446;29;20344;-95
2021/01/26 04:30:28;;;;;;;8.23;7.27;;;;;;;1.24;100.00;94994.94;4938468;29;20206;-95
2021/01/26 04:32:57;;;;;;;27.10;22.13;;;;;;;1.22;100.00;94996.03;4937914;29;20297;-96
2021/01/26 04:35:24;;;;;;;13.93;11.60;;;;;;;1.36;100.00;94998.25;4937872;29;20201;-95
2021/01/26 04:37:51;;;;;;;6.30;5.20;;;;;;;1.55;100.00;94994.84;4938311;29;20254;-96
2021/01/26 04:40:19;;;;;;;4.40;3.57;;;;;;;1.40;100.00;94995.25;4939482;29;20233;-96
2021/01/26 04:42:49;;;;;;;4.13;3.10;;;;;;;1.55;100.00;95000.84;4943332;29;20199;-96
2021/01/26 04:45:24;;;;;;;5.40;3.60;;;;;;;1.63;100.00;95005.38;4944734;29;20205;-96
2021/01/26 04:48:00;;;;;;;4.63;4.10;;;;;;;1.67;100.00;95014.50;4950090;29;20213;-96
2021/01/26 04:50:35;;;;;;;5.30;4.80;;;;;;;1.77;100.00;95015.34;4952000;29;20205;-96
2021/01/26 04:53:35;;;;;;;6.27;5.03;;;;;;;1.48;100.00;95004.09;4942623;29;20202;-96
2021/01/26 04:56:09;;;;;;;8.43;4.60;;;;;;;1.51;100.00;95004.66;4949284;29;20254;-96
2021/01/26 04:58:55;;;;;;;16.53;11.27;;;;;;;1.73;100.00;95005.34;4955158;29;20610;-96
2021/01/26 05:01:38;;;;;;;6.27;5.27;;;;;;;1.59;100.00;94993.63;4951841;29;20213;-96
2021/01/26 05:04:11;;;;;;;5.90;4.80;;;;;;;1.44;100.00;94993.19;4947999;29;20199;-96
2021/01/26 05:06:47;;;;;;;6.17;5.63;;;;;;;1.74;100.00;95004.44;4943890;29;20662;-96
2021/01/26 05:09:19;;;;;;;15.23;9.87;;;;;;;1.45;100.00;95012.13;4950197;29;20206;-96
2021/01/26 05:11:48;;;;;;;12.23;10.27;;;;;;;0.83;100.00;95022.59;4954308;29;20199;-96
2021/01/26 05:14:20;;;;;;;15.50;10.60;;;;;;;1.19;100.00;95020.41;4958942;29;20202;-96
2021/01/26 05:25:00;;;;;;;10.93;7.00;;;;;;;1.08;100.00;95012.75;5018107;23;20225;-96
2021/01/26 05:27:43;;;;;;;31.70;23.80;;;;;;;1.24;100.00;95017.41;5304307;23;20235;31
2021/01/26 05:30:26;;;;;;;7.70;6.97;;;;;;;1.67;100.00;95015.31;4917708;29;20258;-96
2021/01/26 05:32:54;;;;;;;12.77;9.17;;;;;;;1.71;100.00;95004.69;4907605;29;20207;-94
2021/01/26 05:35:22;;;;;;;13.37;8.73;;;;;;;1.66;100.00;95007.66;4955429;23;20293;-96
2021/01/26 05:37:52;;;;;;;14.00;11.73;;;;;;;1.65;100.00;95006.84;4941299;29;20310;-94
2021/01/26 05:40:22;;;;;;;9.87;8.30;;;;;;;1.51;100.00;95006.44;4948420;29;20187;-96
2021/01/26 05:42:53;;;;;;;10.07;7.43;;;;;;;1.49;100.00;95008.31;4953079;29;20190;-95
2021/01/26 05:45:25;;;;;;;19.97;14.23;;;;;;;1.54;100.00;94993.22;4939642;29;20206;-96
2021/01/26 05:48:03;;;;;;;15.40;9.73;;;;;;;1.32;100.00;95002.06;4938911;29;20232;-96
2021/01/26 05:50:32;;;;;;;25.57;16.73;;;;;;;1.25;100.00;94996.59;4942099;29;20209;-96
2021/01/26 05:53:04;;;;;;;18.00;11.57;;;;;;;1.59;100.00;94984.09;4939830;29;20206;-96
2021/01/26 05:55:33;;;;;;;12.73;9.97;;;;;;;1.34;100.00;94990.59;4938005;29;20194;-95
2021/01/26 05:58:09;;;;;;;41.60;25.97;;;;;;;1.28;100.00;94992.91;4938471;29;20211;-95
2021/01/26 06:00:37;;;;;;;25.93;17.83;;;;;;;0.85;100.00;95012.91;4937005;29;20290;-95
2021/01/26 06:03:12;;;;;;;27.93;20.07;;;;;;;1.26;100.00;95005.16;4937178;29;20202;-96
2021/01/26 06:05:41;;;;;;;17.03;14.10;;;;;;;1.50;100.00;95012.56;4938388;29;20265;-96
2021/01/26 06:08:11;;;;;;;14.27;10.77;;;;;;;1.48;100.00;94993.75;4938120;29;20203;-95
2021/01/26 06:10:42;;;;;;;10.30;8.70;;;;;;;1.51;100.00;95002.06;4936752;29;20199;-96
2021/01/26 06:13:10;;;;;;;9.53;7.57;;;;;;;1.53;100.00;95005.34;4937495;29;20207;-95
2021/01/26 06:15:40;;;;;;;8.23;7.17;;;;;;;1.59;100.00;95001.38;4939085;29;20209;-95
2021/01/26 06:18:14;;;;;;;9.77;7.03;;;;;;;1.80;100.00;94996.09;4937493;29;20187;-96
2021/01/26 06:20:42;;;;;;;10.53;7.87;;;;;;;2.02;100.00;94992.41;4937386;29;20197;-96
2021/01/26 06:23:19;;;;;;;13.80;9.77;;;;;;;1.95;100.00;94984.38;4937192;29;20207;-96
2021/01/26 06:25:52;;;;;;;17.67;14.77;;;;;;;1.90;100.00;94986.53;4937483;29;20230;-96
2021/01/26 06:28:40;;;;;;;28.57;17.77;;;;;;;1.61;100.00;94994.31;4936711;29;20187;-96
2021/01/26 06:31:14;;;;;;;24.83;19.20;;;;;;;1.53;100.00;95005.34;4938507;29;20199;-96
2021/01/26 06:34:09;;;;;;;50.13;41.43;;;;;;;1.64;100.00;95018.19;4941421;29;20289;-96
2021/01/26 06:37:09;;;;;;;32.20;27.03;;;;;;;1.67;100.00;95010.13;4942281;29;20206;-96
2021/01/26 06:40:05;;;;;;;51.97;34.70;;;;;;;1.61;100.00;95017.63;4945606;29;20205;-96
2021/01/26 06:42:52;;;;;;;30.03;23.97;;;;;;;1.76;100.00;95015.44;4942152;29;20230;-95
2021/01/26 06:45:25;;;;;;;19.33;14.73;;;;;;;1.49;100.00;95010.91;4938365;29;20306;-96
2021/01/26 06:48:35;;;;;;;21.63;12.77;;;;;;;1.99;100.00;95010.84;4937453;29;20198;-95
2021/01/26 06:51:24;;;;;;;32.77;22.70;;;;;;;1.98;100.00;95004.84;4879333;29;20284;-95
2021/01/26 06:54:03;;;;;;;38.13;24.67;;;;;;;1.81;100.00;95006.34;4877854;29;20280;-96
2021/01/26 06:57:18;;;;;;;44.80;36.07;;;;;;;2.18;100.00;94986.66;4877691;29;20313;-94
2021/01/26 07:00:22;;;;;;;35.53;28.27;;;;;;;2.10;100.00;94998.53;4871551;29;20232;-94
2021/01/26 07:03:24;;;;;;;36.43;26.70;;;;;;;2.10;100.00;94984.75;4873068;29;20208;-94
2021/01/26 07:06:06;;;;;;;34.67;22.63;;;;;;;2.26;100.00;94992.81;4880021;29;20325;-95
2021/01/26 07:08:52;;;;;;;25.53;19.77;;;;;;;2.36;100.00;94965.09;4878625;29;20232;-96
2021/01/26 07:11:44;;;;;;;47.07;33.53;;;;;;;2.66;100.00;94968.38;4881505;29;20213;-93
2021/01/26 07:14:24;;;;;;;39.87;28.80;;;;;;;2.61;100.00;94973.19;4882774;29;20193;-94
2021/01/26 07:16:54;;;;;;;32.93;26.47;;;;;;;2.16;100.00;94984.22;4882556;29;20224;-93
2021/01/26 07:19:52;;;;;;;47.50;35.73;;;;;;;2.28;100.00;94984.88;4880597;29;20215;-94
2021/01/26 07:22:48;;;;;;;31.87;23.97;;;;;;;2.30;100.00;94995.94;4919954;29;20232;-95
2021/01/26 07:25:25;;;;;;;15.47;13.10;;;;;;;2.45;100.00;94997.13;4937993;29;20345;-93
2021/01/26 07:28:21;;;;;;;23.30;15.90;;;;;;;2.59;100.00;95006.22;4937922;29;20186;-93
2021/01/26 07:30:53;;;;;;;17.33;13.37;;;;;;;2.64;100.00;95004.06;4937534;29;20191;-94
2021/01/26 07:33:29;;;;;;;15.80;13.27;;;;;;;2.83;100.00;95001.38;4936386;29;20254;-93
2021/01/26 07:36:02;;;;;;;20.30;16.70;;;;;;;2.98;100.00;95011.28;4942278;29;20576;-94
2021/01/26 07:38:35;;;;;;;16.03;13.70;;;;;;;3.04;100.00;95001.16;4942746;29;20245;-91
2021/01/26 07:41:08;;;;;;;9.00;8.07;;;;;;;2.92;100.00;94997.13;4942280;29;20194;-93
2021/01/26 07:43:44;;;;;;;19.60;14.77;;;;;;;3.24;100.00;94985.50;4942853;29;20195;-93
2021/01/26 07:46:19;;;;;;;16.90;13.13;;;;;;;3.13;100.00;94981.31;4944726;29;20206;-95
2021/01/26 07:48:57;;;;;;;16.67;13.17;;;;;;;2.79;100.00;94971.50;4942712;29;20222;-94
2021/01/26 07:51:28;;;;;;;12.73;10.20;;;;;;;2.77;100.00;94975.19;4943369;29;20209;-95
2021/01/26 07:54:05;;;;;;;13.63;12.23;;;;;;;2.83;100.00;94985.81;4942122;29;20207;-92
2021/01/26 07:56:37;;;;;;;13.93;11.67;;;;;;;3.16;100.00;94972.44;4940366;29;20205;-93
2021/01/26 07:59:09;;;;;;;13.33;11.93;;;;;;;3.18;100.00;94976.50;4941272;29;20564;-93
2021/01/26 08:01:40;;;;;;;12.30;10.83;;;;;;;3.17;100.00;94974.06;4942276;29;20203;-94
2021/01/26 08:04:08;;;;;;;12.97;10.63;;;;;;;3.15;100.00;94987.16;4943034;29;20191;-93
2021/01/26 08:06:59;;;;;;;17.03;14.90;;;;;;;3.32;100.00;94982.97;4941981;29;20646;-94
2021/01/26 08:09:38;;;;;;;21.63;17.07;;;;;;;3.27;100.00;94978.22;4940803;29;20206;-94
2021/01/26 08:12:08;;;;;;;30.13;21.77;;;;;;;3.41;100.00;94968.31;4940536;29;20202;-93
2021/01/26 08:14:39;;;;;;;30.77;21.87;;;;;;;3.53;100.00;94969.72;4939202;29;20186;-95
2021/01/26 08:17:11;;;;;;;24.70;20.23;;;;;;;3.39;100.00;94978.84;4938917;29;20226;-95
2021/01/26 08:19:44;;;;;;;24.23;17.20;;;;;;;3.39;100.00;94965.03;4938751;29;20683;-93
2021/01/26 08:22:30;;;;;;;18.17;13.60;;;;;;;3.50;100.00;94954.47;4939401;29;20266;-94
2021/01/26 08:25:07;;;;;;;11.73;9.87;;;;;;;3.77;100.00;94953.53;4940023;29;20311;-93
2021/01/26 08:27:51;;;;;;;18.43;16.07;;;;;;;3.86;100.00;94944.06;4938901;29;20301;-93
2021/01/26 08:30:24;;;;;;;26.43;21.57;;;;;;;3.80;100.00;94924.66;4938992;29;20195;-93
2021/01/26 08:33:07;;;;;;;19.63;14.73;;;;;;;3.97;100.00;94926.44;4938376;29;20190;-93
2021/01/26 08:36:00;;;;;;;10.90;8.97;;;;;;;4.06;100.00;94916.91;4938184;29;20203;-92
2021/01/26 08:38:47;;;;;;;10.63;9.53;;;;;;;3.75;100.00;94932.09;4938983;29;20242;-91
2021/01/26 08:41:37;;;;;;;13.90;9.77;;;;;;;3.75;100.00;94934.72;4939029;29;20191;-92
2021/01/26 08:44:26;;;;;;;11.57;9.33;;;;;;;3.78;100.00;94948.22;4939035;29;20668;-92
2021/01/26 08:46:54;;;;;;;8.17;7.30;;;;;;;3.78;100.00;94953.41;4936479;28;20222;-93
2021/01/26 08:49:25;;;;;;;8.83;7.23;;;;;;;4.08;100.00;94960.97;4938104;29;20203;-93
2021/01/26 08:51:53;;;;;;;11.57;8.20;;;;;;;4.00;100.00;94946.94;4938373;29;20218;-92
2021/01/26 08:54:39;;;;;;;12.60;9.67;;;;;;;3.80;100.00;94938.47;4939070;29;20218;-93
2021/01/26 08:57:40;;;;;;;16.87;10.70;;;;;;;4.02;100.00;94941.59;4939626;29;20201;-93
2021/01/26 09:00:43;;;;;;;10.67;9.40;;;;;;;4.01;100.00;94960.75;4938231;29;20230;-93
2021/01/26 09:03:28;;;;;;;16.53;11.83;;;;;;;4.05;100.00;94965.50;4940544;29;20227;-93
2021/01/26 09:05:58;;;;;;;10.70;9.10;;;;;;;4.16;100.00;94961.03;4940277;29;20707;-92
2021/01/26 09:08:51;;;;;;;11.07;8.80;;;;;;;4.28;100.00;94954.59;4938386;29;20206;-93
2021/01/26 09:11:33;;;;;;;11.50;10.00;;;;;;;4.49;100.00;94960.28;4938346;29;20273;-93
2021/01/26 09:14:05;;;;;;;12.60;10.50;;;;;;;4.52;100.00;94962.56;4938296;29;20191;-93
2021/01/26 09:16:33;;;;;;;14.03;11.63;;;;;;;4.53;100.00;94964.19;4937937;29;20183;-94
2021/01/26 09:19:06;;;;;;;15.60;13.57;;;;;;;4.44;100.00;94966.91;4937983;29;20212;-93
2021/01/26 09:21:35;;;;;;;14.33;11.97;;;;;;;4.31;100.00;94950.91;4938195;29;20579;-94
2021/01/26 09:24:02;;;;;;;14.53;10.50;;;;;;;4.34;100.00;94961.81;4939667;29;20202;-93
2021/01/26 09:26:30;;;;;;;12.37;9.83;;;;;;;4.23;100.00;94959.47;4941529;29;20342;-94
2021/01/26 09:28:58;;;;;;;13.90;10.80;;;;;;;4.31;100.00;94956.09;4938235;29;20234;-94
2021/01/26 09:31:26;;;;;;;18.57;13.50;;;;;;;4.35;100.00;94945.22;4937675;29;20229;-93
2021/01/26 09:34:06;;;;;;;16.80;14.47;;;;;;;4.44;100.00;94933.09;4937907;29;20285;-93
2021/01/26 09:36:34;;;;;;;27.27;20.30;;;;;;;4.70;100.00;94927.84;4937669;29;20193;-93
2021/01/26 09:39:06;;;;;;;26.57;21.13;;;;;;;4.70;100.00;94927.84;4937161;29;20240;-94
2021/01/26 09:41:34;;;;;;;24.47;17.83;;;;;;;4.64;100.00;94938.88;4938863;29;20198;-94
2021/01/26 09:44:06;;;;;;;23.93;16.23;;;;;;;4.74;100.00;94931.78;4937862;29;20217;-90
2021/01/26 09:46:35;;;;;;;15.37;13.30;;;;;;;4.80;100.00;94925.16;4937793;29;20301;-91
2021/01/26 09:49:18;;;;;;;18.33;14.83;;;;;;;4.81;100.00;94924.97;4937897;29;20203;-91
2021/01/26 09:51:49;;;;;;;13.13;9.43;;;;;;;4.60;100.00;94942.78;4937553;29;20245;-93
2021/01/26 09:54:22;;;;;;;13.83;10.80;;;;;;;4.80;100.00;94935.56;4937138;29;20205;-92
2021/01/26 09:56:49;;;;;;;12.00;10.30;;;;;;;4.89;100.00;94930.25;4936743;29;20191;-92
2021/01/26 09:59:16;;;;;;;12.13;10.23;;;;;;;4.99;100.00;94933.53;4936981;29;20593;-92
2021/01/26 10:01:45;;;;;;;11.63;8.97;;;;;;;4.86;100.00;94942.75;4937189;29;20328;-92
2021/01/26 10:04:14;;;;;;;11.33;8.17;;;;;;;4.97;100.00;94926.84;4937052;29;20297;-92
2021/01/26 10:06:41;;;;;;;12.70;8.83;;;;;;;5.28;100.00;94929.72;4936730;29;20320;-92
2021/01/26 10:09:22;;;;;;;34.93;22.03;;;;;;;5.36;100.00;94928.91;4937384;29;20581;-92
2021/01/26 10:11:49;;;;;;;31.10;20.47;;;;;;;5.36;100.00;94928.91;4938024;29;20191;-93
2021/01/26 10:14:20;;;;;;;10.77;7.83;;;;;;;5.44;100.00;94936.78;4937065;29;20202;-93
2021/01/26 10:16:48;;;;;;;12.20;8.00;;;;;;;5.46;100.00;94929.59;4937299;29;20278;-93
2021/01/26 10:19:23;;;;;;;11.77;8.47;;;;;;;5.54;100.00;94927.00;4936819;29;20202;-93
2021/01/26 10:21:50;;;;;;;16.17;12.13;;;;;;;5.57;100.00;94912.84;4936771;29;20194;-93
2021/01/26 10:24:26;;;;;;;13.20;10.50;;;;;;;5.46;100.00;94904.34;4936468;29;20206;-93
2021/01/26 10:27:06;;;;;;;12.73;9.90;;;;;;;5.78;100.00;94905.34;4937210;29;20240;-94
2021/01/26 10:29:43;;;;;;;9.00;7.10;;;;;;;5.76;100.00;94902.09;4937259;29;20277;-93
2021/01/26 10:32:12;;;;;;;4.60;4.07;;;;;;;6.05;100.00;94906.03;4936955;29;20204;-94
2021/01/26 10:34:43;;;;;;;7.37;3.17;;;;;;;6.29;100.00;94919.06;4936749;29;20222;-94
2021/01/26 10:37:30;;;;;;;5.73;3.40;;;;;;;6.50;100.00;94931.59;4937554;29;20195;-94
2021/01/26 10:40:17;;;;;;;5.37;4.23;;;;;;;6.52;100.00;94939.28;4937284;29;20245;-93
2021/01/26 10:42:59;;;;;;;3.33;2.93;;;;;;;6.54;100.00;94939.91;4938480;29;20602;-93
2021/01/26 10:45:47;;;;;;;4.27;2.77;;;;;;;6.45;100.00;94948.75;4938099;29;20640;-93
2021/01/26 10:48:31;;;;;;;11.40;8.37;;;;;;;6.50;100.00;94936.00;4938356;29;20194;-92
2021/01/26 10:51:12;;;;;;;6.00;3.80;;;;;;;6.39;100.00;94945.00;4938133;29;20246;-93
2021/01/26 10:53:42;;;;;;;4.43;2.57;;;;;;;6.31;100.00;94945.81;4937359;29;20226;-92
2021/01/26 10:56:10;;;;;;;4.30;3.47;;;;;;;6.42;100.00;94942.88;4937248;29;20213;-93
2021/01/26 10:58:37;;;;;;;13.03;8.67;;;;;;;6.40;100.00;94949.22;4938371;29;20235;-93
2021/01/26 11:01:04;;;;;;;3.70;3.10;;;;;;;6.30;100.00;94957.22;4939493;29;20222;-93
2021/01/26 11:03:31;;;;;;;2.07;1.83;;;;;;;6.27;100.00;94944.53;4940383;29;20203;-93
2021/01/26 11:05:58;;;;;;;3.67;1.97;;;;;;;6.30;100.00;94940.75;4939631;29;20210;-93
2021/01/26 11:08:26;;;;;;;4.33;2.53;;;;;;;6.22;100.00;94952.00;4939521;29;20199;-92
2021/01/26 11:10:53;;;;;;;4.20;1.77;;;;;;;6.27;100.00;94939.31;4959258;29;20194;-91
2021/01/26 11:13:20;;;;;;;3.30;1.70;;;;;;;6.18;100.00;94935.06;4962635;29;20260;-91
2021/01/26 11:15:47;;;;;;;4.70;1.63;;;;;;;6.05;100.00;94939.94;4961916;29;20606;-89
2021/01/26 11:18:14;;;;;;;2.30;1.80;;;;;;;5.97;100.00;94946.00;4955572;29;20233;-90
2021/01/26 11:20:42;;;;;;;2.07;1.63;;;;;;;5.88;100.00;94944.31;4957728;29;20262;-90
2021/01/26 11:23:09;;;;;;;3.57;2.63;;;;;;;5.93;100.00;94937.69;4960606;29;20229;-91
2021/01/26 11:25:37;;;;;;;3.70;2.37;;;;;;;5.94;100.00;94928.06;4959051;29;20575;-92
2021/01/26 11:28:05;;;;;;;1.80;1.70;;;;;;;5.78;100.00;94934.03;4947784;29;20714;-92
2021/01/26 11:30:32;;;;;;;3.00;2.13;;;;;;;5.90;100.00;94921.50;4941061;29;20214;-93
2021/01/26 11:33:01;;;;;;;3.43;1.80;;;;;;;5.86;100.00;94921.03;4940879;29;20199;-94
2021/01/26 11:35:29;;;;;;;2.07;1.80;;;;;;;5.82;100.00;94927.53;4943961;29;20205;-94
2021/01/26 11:37:56;;;;;;;3.03;2.13;;;;;;;5.75;100.00;94926.56;4943824;29;20195;-93
2021/01/26 11:40:25;;;;;;;1.70;1.60;;;;;;;5.65;100.00;94933.72;4945479;29;20202;-94
2021/01/26 11:42:53;;;;;;;2.90;1.93;;;;;;;5.65;100.00;94947.56;4943732;29;20203;-92
2021/01/26 11:45:23;;;;;;;3.37;1.80;;;;;;;5.55;100.00;94952.09;4941440;29;20239;-92
2021/01/26 11:47:50;;;;;;;1.63;1.53;;;;;;;5.50;100.00;94941.31;4945547;29;20229;-94
2021/01/26 11:50:18;;;;;;;1.77;1.67;;;;;;;5.52;100.00;94934.16;4943995;29;20203;-93
2021/01/26 11:52:45;;;;;;;1.97;1.87;;;;;;;5.56;100.00;94939.88;4939153;29;20226;-93
2021/01/26 11:55:15;;;;;;;2.03;1.87;;;;;;;5.48;100.00;94930.25;4938726;29;20261;-95
2021/01/26 11:57:43;;;;;;;4.90;2.73;;;;;;;5.30;100.00;94926.94;4938687;29;20211;-92
2021/01/26 12:00:12;;;;;;;2.87;2.67;;;;;;;5.29;100.00;94941.75;4938783;29;20281;-92
2021/01/26 12:02:39;;;;;;;2.33;2.13;;;;;;;5.26;100.00;94929.03;4938327;29;20203;-91
2021/01/26 12:05:08;;;;;;;3.37;2.67;;;;;;;5.09;100.00;94920.41;4938266;29;20338;-92
2021/01/26 12:07:34;;;;;;;3.23;2.50;;;;;;;4.99;100.00;94907.50;4938052;29;20261;-90
2021/01/26 12:10:01;;;;;;;5.07;2.90;;;;;;;5.00;100.00;94903.91;4938484;29;20290;-92